Time;durP1;ratioP1;P1;durP2;ratioP2;P2;SDS_P1;SDS_P2;PMS_P1;PMS_P2;Temp;Humidity;BMP_temperature;BMP_pressure;BME280_temperature;BME280_humidity;BME280_pressure;Samples;Min_cycle;Max_cycle;Signal;HPM_P1;HPM_P2
2022/08/02 00:02:16;;;;;;;4.32;1.30;;;;;;;;;;5062129;28;20024;-74
2022/08/02 00:04:41;;;;;;;3.92;1.50;;;;;;;;;;5063134;28;20040;-74
2022/08/02 00:07:07;;;;;;;5.20;1.45;;;;;;;;;;5065528;28;20033;-74
2022/08/02 00:09:32;;;;;;;2.80;1.30;;;;;;;;;;5065795;28;20032;-74
2022/08/02 00:11:57;;;;;;;4.40;1.55;;;;;;;;;;5061482;28;20075;-75
2022/08/02 00:14:23;;;;;;;2.78;1.52;;;;;;;;;;5066486;28;20089;-74
2022/08/02 00:16:48;;;;;;;4.35;1.60;;;;;;;;;;5066897;28;20028;-75
2022/08/02 00:19:14;;;;;;;3.50;1.55;;;;;;;;;;5068123;28;20029;-73
2022/08/02 00:21:39;;;;;;;2.35;1.40;;;;;;;;;;5068293;28;20027;-74
2022/08/02 00:24:05;;;;;;;3.67;1.30;;;;;;;;;;5062791;28;20017;-74
2022/08/02 00:26:30;;;;;;;2.83;1.20;;;;;;;;;;5063605;28;20028;-74
2022/08/02 00:28:56;;;;;;;2.78;1.23;;;;;;;;;;5067603;28;20505;-73
2022/08/02 00:31:21;;;;;;;2.38;1.00;;;;;;;;;;5066221;28;20033;-74
2022/08/02 00:33:46;;;;;;;2.70;0.95;;;;;;;;;;5059089;28;20115;-74
2022/08/02 00:36:12;;;;;;;2.10;1.10;;;;;;;;;;5052789;28;20032;-75
2022/08/02 00:38:38;;;;;;;2.30;1.10;;;;;;;;;;5076091;28;20028;-74
2022/08/02 00:41:03;;;;;;;1.75;0.88;;;;;;;;;;5062709;28;20032;-74
2022/08/02 00:43:28;;;;;;;3.40;1.10;;;;;;;;;;5062539;28;20029;-74
2022/08/02 00:45:54;;;;;;;3.85;1.13;;;;;;;;;;5065515;28;20031;-74
2022/08/02 00:48:19;;;;;;;1.50;0.80;;;;;;;;;;5070469;28;20499;-74
2022/08/02 00:50:45;;;;;;;2.17;1.05;;;;;;;;;;5064062;28;21144;-74
2022/08/02 00:53:10;;;;;;;3.22;1.40;;;;;;;;;;5068385;28;20032;-74
2022/08/02 00:55:36;;;;;;;3.40;1.20;;;;;;;;;;5066594;28;20481;-74
2022/08/02 00:58:03;;;;;;;2.83;1.27;;;;;;;;;;5069530;28;20407;-74
2022/08/02 01:00:28;;;;;;;3.78;1.58;;;;;;;;;;5060729;28;20029;-75
2022/08/02 01:02:53;;;;;;;6.30;1.60;;;;;;;;;;5065127;28;20036;-72
2022/08/02 01:05:19;;;;;;;4.15;1.70;;;;;;;;;;5070088;28;20058;-72
2022/08/02 01:07:44;;;;;;;3.20;1.55;;;;;;;;;;5072097;28;20493;-74
2022/08/02 01:10:10;;;;;;;3.55;1.52;;;;;;;;;;5068141;28;20032;-74
2022/08/02 01:12:36;;;;;;;3.88;1.42;;;;;;;;;;5066252;28;20020;-75
2022/08/02 01:15:05;;;;;;;3.80;1.40;;;;;;;;;;5069591;28;20012;-74
2022/08/02 01:17:42;;;;;;;6.55;1.80;;;;;;;;;;5064462;28;20052;-75
2022/08/02 01:20:24;;;;;;;3.80;1.13;;;;;;;;;;5067868;28;20035;-73
2022/08/02 01:23:01;;;;;;;4.78;1.30;;;;;;;;;;5063270;28;20027;-75
2022/08/02 01:25:52;;;;;;;4.38;1.20;;;;;;;;;;5067716;28;20339;-74
2022/08/02 01:28:42;;;;;;;3.63;1.10;;;;;;;;;;5069833;28;20028;-74
2022/08/02 01:31:26;;;;;;;5.78;1.15;;;;;;;;;;5064874;28;20066;-74
2022/08/02 01:34:05;;;;;;;2.78;0.90;;;;;;;;;;5067600;28;20104;-74
2022/08/02 01:36:38;;;;;;;2.30;1.10;;;;;;;;;;5071374;28;20032;-74
2022/08/02 01:39:04;;;;;;;;;;;;;;;;;;5065444;28;20047;-74
2022/08/02 01:41:31;;;;;;;1.63;1.00;;;;;;;;;;5069723;28;19928;-75
2022/08/02 01:43:58;;;;;;;2.03;1.10;;;;;;;;;;5065948;28;20024;-74
2022/08/02 01:46:25;;;;;;;2.53;0.82;;;;;;;;;;5077074;28;20027;-73
2022/08/02 01:48:53;;;;;;;4.82;1.10;;;;;;;;;;5061960;28;20047;-73
2022/08/02 01:52:20;;;;;;;4.05;1.10;;;;;;;;;;5062432;28;20028;-74
2022/08/02 01:54:08;;;;;;;1.88;1.10;;;;;;;;;;5065662;28;20033;-75
2022/08/02 01:56:35;;;;;;;3.22;1.17;;;;;;;;;;5067700;28;20548;-75
2022/08/02 01:59:02;;;;;;;2.40;1.10;;;;;;;;;;5062191;28;20304;-74
2022/08/02 02:01:30;;;;;;;4.70;1.52;;;;;;;;;;5070833;28;20112;-75
2022/08/02 02:03:56;;;;;;;2.75;1.20;;;;;;;;;;5064205;28;20029;-73
2022/08/02 02:06:22;;;;;;;3.65;1.48;;;;;;;;;;5069637;28;20028;-74
2022/08/02 02:08:50;;;;;;;1.92;1.00;;;;;;;;;;5063716;28;20152;-74
2022/08/02 02:11:15;;;;;;;2.60;1.10;;;;;;;;;;5065619;28;20025;-73
2022/08/02 02:13:41;;;;;;;1.95;1.10;;;;;;;;;;5067273;28;20403;-74
2022/08/02 02:16:07;;;;;;;3.08;1.20;;;;;;;;;;5067348;28;20032;-74
2022/08/02 02:18:37;;;;;;;1.95;1.08;;;;;;;;;;5065037;28;20033;-73
2022/08/02 02:21:03;;;;;;;3.33;1.10;;;;;;;;;;5065802;28;20043;-75
2022/08/02 02:23:29;;;;;;;2.88;1.25;;;;;;;;;;5067208;28;20028;-74
2022/08/02 02:25:55;;;;;;;3.40;1.17;;;;;;;;;;5080318;28;20020;-73
2022/08/02 02:28:29;;;;;;;2.72;1.15;;;;;;;;;;5068084;28;20491;-74
2022/08/02 02:31:00;;;;;;;4.05;1.20;;;;;;;;;;5067155;28;20020;-73
2022/08/02 02:33:29;;;;;;;2.25;1.08;;;;;;;;;;5067065;28;20043;-73
2022/08/02 02:35:56;;;;;;;3.10;1.20;;;;;;;;;;5064378;28;20029;-72
2022/08/02 02:38:25;;;;;;;3.05;1.20;;;;;;;;;;5071209;28;20029;-74
2022/08/02 02:40:51;;;;;;;1.92;1.00;;;;;;;;;;5065795;28;20029;-74
2022/08/02 02:43:17;;;;;;;2.53;1.00;;;;;;;;;;5065424;28;20035;-74
2022/08/02 02:45:44;;;;;;;3.35;1.27;;;;;;;;;;5066570;28;20020;-73
2022/08/02 02:48:12;;;;;;;3.13;1.15;;;;;;;;;;5062052;28;20643;-72
2022/08/02 02:50:38;;;;;;;3.15;1.25;;;;;;;;;;5062828;28;20021;-72
2022/08/02 02:53:05;;;;;;;3.03;1.30;;;;;;;;;;5062959;28;20036;-74
2022/08/02 02:55:31;;;;;;;3.30;1.27;;;;;;;;;;5070329;28;20028;-73
2022/08/02 02:57:57;;;;;;;2.10;1.15;;;;;;;;;;5064205;28;20032;-74
2022/08/02 03:03:08;;;;;;;3.10;1.52;;;;;;;;;;5064327;28;20452;-74
2022/08/02 03:05:33;;;;;;;4.28;1.40;;;;;;;;;;5065663;28;20369;-74
2022/08/02 03:07:59;;;;;;;2.80;1.27;;;;;;;;;;5065221;28;20036;-73
2022/08/02 03:10:25;;;;;;;1.95;1.20;;;;;;;;;;5060091;28;20396;-74
2022/08/02 03:12:51;;;;;;;2.80;1.27;;;;;;;;;;5065734;28;20028;-74
2022/08/02 03:15:17;;;;;;;2.85;1.30;;;;;;;;;;5068373;28;20070;-73
2022/08/02 03:17:45;;;;;;;3.65;1.55;;;;;;;;;;5065971;28;20111;-74
2022/08/02 03:20:19;;;;;;;3.60;1.70;;;;;;;;;;5064732;28;20033;-74
2022/08/02 03:22:45;;;;;;;3.80;1.52;;;;;;;;;;5059878;28;20031;-73
2022/08/02 03:25:12;;;;;;;2.78;1.38;;;;;;;;;;5064667;28;20033;-74
2022/08/02 03:27:38;;;;;;;3.88;1.38;;;;;;;;;;5066045;28;20515;-74
2022/08/02 03:30:05;;;;;;;3.10;1.60;;;;;;;;;;5066558;28;20068;-74
2022/08/02 03:32:32;;;;;;;3.03;1.42;;;;;;;;;;5068029;28;20564;-75
2022/08/02 03:34:58;;;;;;;3.33;1.50;;;;;;;;;;5066084;28;20086;-75
2022/08/02 03:37:24;;;;;;;4.75;1.30;;;;;;;;;;5063272;28;20037;-74
2022/08/02 03:39:52;;;;;;;3.17;1.45;;;;;;;;;;5070154;28;20944;-72
2022/08/02 03:42:19;;;;;;;4.18;1.60;;;;;;;;;;5060130;28;20082;-73
2022/08/02 03:44:46;;;;;;;2.28;1.25;;;;;;;;;;5060002;28;20032;-74
2022/08/02 03:47:11;;;;;;;3.92;1.30;;;;;;;;;;5061529;28;20038;-75
2022/08/02 03:49:37;;;;;;;3.60;1.45;;;;;;;;;;5057831;28;20025;-74
2022/08/02 03:52:03;;;;;;;3.85;1.40;;;;;;;;;;5059373;28;20024;-73
2022/08/02 03:54:28;;;;;;;4.57;1.60;;;;;;;;;;5062736;28;20028;-73
2022/08/02 03:56:54;;;;;;;4.78;1.60;;;;;;;;;;5063975;28;20170;-75
2022/08/02 03:59:19;;;;;;;2.70;1.60;;;;;;;;;;5064735;28;20029;-74
2022/08/02 04:01:45;;;;;;;5.00;1.60;;;;;;;;;;5065353;28;20066;-74
2022/08/02 04:04:10;;;;;;;3.70;1.67;;;;;;;;;;5062027;28;20074;-73
2022/08/02 04:06:36;;;;;;;4.50;1.65;;;;;;;;;;5074105;28;20036;-74
2022/08/02 04:09:01;;;;;;;3.80;1.83;;;;;;;;;;5061009;28;20037;-74
2022/08/02 04:11:30;;;;;;;5.03;1.80;;;;;;;;;;5066478;28;20392;-74
2022/08/02 04:13:57;;;;;;;4.07;1.52;;;;;;;;;;5069425;28;20048;-74
2022/08/02 04:16:30;;;;;;;5.43;1.58;;;;;;;;;;5062572;28;20032;-75
2022/08/02 04:19:01;;;;;;;3.80;1.50;;;;;;;;;;5061007;28;20025;-72
2022/08/02 04:21:31;;;;;;;3.33;1.70;;;;;;;;;;5064546;28;20031;-74
2022/08/02 04:23:57;;;;;;;3.13;1.55;;;;;;;;;;5069471;28;20503;-75
2022/08/02 04:26:24;;;;;;;3.83;1.73;;;;;;;;;;5068832;28;20056;-74
2022/08/02 04:28:50;;;;;;;4.25;1.90;;;;;;;;;;5070015;28;20044;-75
2022/08/02 04:31:19;;;;;;;3.80;1.70;;;;;;;;;;5068794;28;20029;-76
2022/08/02 04:33:45;;;;;;;3.33;1.63;;;;;;;;;;5065719;28;20711;-75
2022/08/02 04:36:13;;;;;;;3.03;1.70;;;;;;;;;;5062685;28;20447;-73
2022/08/02 04:38:41;;;;;;;2.53;1.75;;;;;;;;;;5071604;28;20055;-75
2022/08/02 04:41:06;;;;;;;3.70;1.65;;;;;;;;;;5070137;28;20024;-75
2022/08/02 04:43:31;;;;;;;4.43;1.80;;;;;;;;;;5067700;28;20037;-76
2022/08/02 04:45:57;;;;;;;4.78;2.10;;;;;;;;;;5067708;28;20163;-75
2022/08/02 04:48:23;;;;;;;3.70;1.80;;;;;;;;;;5072237;28;20043;-73
2022/08/02 04:50:49;;;;;;;3.72;1.88;;;;;;;;;;5069059;28;20025;-75
2022/08/02 04:53:15;;;;;;;3.13;1.80;;;;;;;;;;5071016;28;20032;-75
2022/08/02 04:55:41;;;;;;;4.07;2.17;;;;;;;;;;5063789;28;20603;-75
2022/08/02 04:58:06;;;;;;;3.92;2.00;;;;;;;;;;5065269;28;20032;-76
2022/08/02 05:00:32;;;;;;;4.55;1.95;;;;;;;;;;5069073;28;20055;-75
2022/08/02 05:02:58;;;;;;;4.30;2.00;;;;;;;;;;5066528;28;20450;-74
2022/08/02 05:05:24;;;;;;;4.03;1.90;;;;;;;;;;5069872;28;20024;-76
2022/08/02 05:07:50;;;;;;;5.68;2.30;;;;;;;;;;5064575;28;20484;-76
2022/08/02 05:10:15;;;;;;;3.97;2.10;;;;;;;;;;5069415;28;20032;-73
2022/08/02 05:12:41;;;;;;;5.97;2.28;;;;;;;;;;5067590;28;20496;-73
2022/08/02 05:15:08;;;;;;;4.47;2.25;;;;;;;;;;5064244;28;20028;-75
2022/08/02 05:17:33;;;;;;;5.50;2.10;;;;;;;;;;5065935;28;20036;-75
2022/08/02 05:19:58;;;;;;;5.40;2.13;;;;;;;;;;5065828;28;20021;-74
2022/08/02 05:22:24;;;;;;;4.93;2.80;;;;;;;;;;5068281;28;20109;-76
2022/08/02 05:24:49;;;;;;;5.07;2.65;;;;;;;;;;5072671;28;20108;-73
2022/08/02 05:27:14;;;;;;;6.32;2.55;;;;;;;;;;5066630;28;20033;-75
2022/08/02 05:29:40;;;;;;;4.30;2.60;;;;;;;;;;5069198;28;20022;-73
2022/08/02 05:32:05;;;;;;;4.75;2.35;;;;;;;;;;5065027;28;20447;-74
2022/08/02 05:34:31;;;;;;;6.35;2.85;;;;;;;;;;5055522;28;20032;-76
2022/08/02 05:36:56;;;;;;;7.57;3.03;;;;;;;;;;5068597;28;20037;-76
2022/08/02 05:39:22;;;;;;;4.82;2.70;;;;;;;;;;5066210;28;20028;-76
2022/08/02 05:41:47;;;;;;;6.70;2.95;;;;;;;;;;5059934;28;20056;-75
2022/08/02 05:44:12;;;;;;;6.40;2.75;;;;;;;;;;5060896;28;20426;-75
2022/08/02 05:46:38;;;;;;;4.88;3.00;;;;;;;;;;5066540;28;20384;-75
2022/08/02 05:49:03;;;;;;;6.78;2.70;;;;;;;;;;5070257;28;20115;-75
2022/08/02 05:51:44;;;;;;;7.38;2.90;;;;;;;;;;5069996;28;20024;-73
2022/08/02 05:54:17;;;;;;;9.30;3.53;;;;;;;;;;5069892;28;20029;-75
2022/08/02 05:56:48;;;;;;;;;;;;;;;;;;5062573;28;20249;-75
2022/08/02 05:59:33;;;;;;;7.32;2.75;;;;;;;;;;5067591;28;19919;-76
2022/08/02 06:02:03;;;;;;;6.43;3.45;;;;;;;;;;5066640;28;20067;-75
2022/08/02 06:04:58;;;;;;;7.28;3.78;;;;;;;;;;5067941;28;20476;-75
2022/08/02 06:07:23;;;;;;;6.25;3.40;;;;;;;;;;5065587;28;20392;-74
2022/08/02 06:09:50;;;;;;;8.30;3.80;;;;;;;;;;5070516;28;20031;-75
2022/08/02 06:12:16;;;;;;;7.85;4.07;;;;;;;;;;5061314;28;20032;-76
2022/08/02 06:14:42;;;;;;;6.97;4.05;;;;;;;;;;5068294;28;20029;-75
2022/08/02 06:17:08;;;;;;;8.32;4.20;;;;;;;;;;5069002;28;20037;-73
2022/08/02 06:19:37;;;;;;;8.10;4.28;;;;;;;;;;5065863;28;20036;-75
2022/08/02 06:22:13;;;;;;;8.40;4.40;;;;;;;;;;5070050;28;20116;-73
2022/08/02 06:24:43;;;;;;;8.48;4.60;;;;;;;;;;5060758;28;20020;-73
2022/08/02 06:27:14;;;;;;;6.63;4.65;;;;;;;;;;5060728;28;20024;-75
2022/08/02 06:29:42;;;;;;;9.48;4.93;;;;;;;;;;5063080;28;20031;-74
2022/08/02 06:32:09;;;;;;;8.68;4.82;;;;;;;;;;5060956;28;20052;-75
2022/08/02 06:34:38;;;;;;;7.68;5.32;;;;;;;;;;5063536;28;20094;-74
2022/08/02 06:37:37;;;;;;;9.40;5.47;;;;;;;;;;5066134;28;20479;-75
2022/08/02 06:40:12;;;;;;;6.97;5.15;;;;;;;;;;5061445;28;20024;-74
2022/08/02 06:43:15;;;;;;;8.27;5.10;;;;;;;;;;5071864;28;20115;-75
2022/08/02 06:45:41;;;;;;;9.40;5.82;;;;;;;;;;5065714;28;20103;-73
2022/08/02 06:48:07;;;;;;;7.18;5.25;;;;;;;;;;5066387;28;20147;-75
2022/08/02 06:50:33;;;;;;;8.50;5.53;;;;;;;;;;5067429;28;20028;-75
2022/08/02 06:52:59;;;;;;;9.18;5.90;;;;;;;;;;5069638;28;20036;-74
2022/08/02 06:55:26;;;;;;;8.43;5.55;;;;;;;;;;5067679;28;20029;-75
2022/08/02 06:57:51;;;;;;;8.50;5.75;;;;;;;;;;5068169;28;20033;-75
2022/08/02 07:00:17;;;;;;;9.25;6.45;;;;;;;;;;5067878;28;20387;-75
2022/08/02 07:02:42;;;;;;;8.95;5.95;;;;;;;;;;5061940;28;20103;-74
2022/08/02 07:05:08;;;;;;;7.57;5.70;;;;;;;;;;5061933;28;20031;-73
2022/08/02 07:07:33;;;;;;;7.68;5.63;;;;;;;;;;5067591;28;20415;-75
2022/08/02 07:09:59;;;;;;;8.75;6.00;;;;;;;;;;5060284;28;20477;-75
2022/08/02 07:12:25;;;;;;;9.73;5.72;;;;;;;;;;5056741;28;20029;-74
2022/08/02 07:14:50;;;;;;;8.18;5.82;;;;;;;;;;5062578;28;20036;-75
2022/08/02 07:17:15;;;;;;;9.27;5.85;;;;;;;;;;5061435;28;20020;-75
2022/08/02 07:19:41;;;;;;;8.15;5.88;;;;;;;;;;5060352;28;20028;-75
2022/08/02 07:22:06;;;;;;;8.07;5.95;;;;;;;;;;5067705;28;20036;-75
2022/08/02 07:24:32;;;;;;;10.02;5.43;;;;;;;;;;5059829;28;20024;-75
2022/08/02 07:26:58;;;;;;;8.52;5.65;;;;;;;;;;5064020;28;20036;-75
2022/08/02 07:29:24;;;;;;;8.27;6.18;;;;;;;;;;5064708;28;20546;-75
2022/08/02 07:31:49;;;;;;;10.60;6.50;;;;;;;;;;5060375;28;20045;-74
2022/08/02 07:34:15;;;;;;;8.68;6.35;;;;;;;;;;5061599;28;20020;-75
2022/08/02 07:36:40;;;;;;;11.30;6.50;;;;;;;;;;5065425;28;20342;-74
2022/08/02 07:39:05;;;;;;;10.35;6.95;;;;;;;;;;5063198;28;20120;-73
2022/08/02 07:41:31;;;;;;;9.95;6.70;;;;;;;;;;5061209;28;20085;-74
2022/08/02 07:43:56;;;;;;;8.55;6.32;;;;;;;;;;5063200;28;20099;-74
2022/08/02 07:46:21;;;;;;;8.57;6.10;;;;;;;;;;5058705;28;20181;-76
2022/08/02 07:48:47;;;;;;;8.48;6.22;;;;;;;;;;5061501;28;20032;-73
2022/08/02 07:51:13;;;;;;;8.63;5.50;;;;;;;;;;5063636;28;20055;-75
2022/08/02 07:53:39;;;;;;;9.50;5.30;;;;;;;;;;5067767;28;20021;-75
2022/08/02 07:56:04;;;;;;;8.20;5.25;;;;;;;;;;5064091;28;20044;-73
2022/08/02 07:58:30;;;;;;;9.95;5.60;;;;;;;;;;5063841;28;20420;-73
2022/08/02 08:00:55;;;;;;;9.90;4.72;;;;;;;;;;5063481;28;20516;-75
2022/08/02 08:03:20;;;;;;;7.68;4.70;;;;;;;;;;5055674;28;20029;-74
2022/08/02 08:05:46;;;;;;;8.07;4.60;;;;;;;;;;5067652;28;20021;-74
2022/08/02 08:08:11;;;;;;;6.55;4.47;;;;;;;;;;5064491;28;20082;-75
2022/08/02 08:10:39;;;;;;;7.13;4.85;;;;;;;;;;5062691;28;20411;-75
2022/08/02 08:13:04;;;;;;;5.97;4.25;;;;;;;;;;5068100;28;20047;-75
2022/08/02 08:15:30;;;;;;;7.20;4.35;;;;;;;;;;5068095;28;20064;-75
2022/08/02 08:17:55;;;;;;;6.22;3.65;;;;;;;;;;5064983;28;20029;-75
2022/08/02 08:20:21;;;;;;;6.15;4.32;;;;;;;;;;5063858;28;20033;-75
2022/08/02 08:22:47;;;;;;;6.38;4.47;;;;;;;;;;5059698;28;20392;-75
2022/08/02 08:25:13;;;;;;;7.65;4.90;;;;;;;;;;5065225;28;20021;-74
2022/08/02 08:27:47;;;;;;;6.55;4.03;;;;;;;;;;5056538;28;20025;-75
2022/08/02 08:30:12;;;;;;;5.82;3.47;;;;;;;;;;5063306;28;20032;-75
2022/08/02 08:32:37;;;;;;;5.28;3.42;;;;;;;;;;5059526;28;20567;-76
2022/08/02 08:35:05;;;;;;;5.93;3.58;;;;;;;;;;5061335;28;20158;-73
2022/08/02 08:37:38;;;;;;;5.40;3.35;;;;;;;;;;5061391;28;20043;-74
2022/08/02 08:40:04;;;;;;;5.55;3.30;;;;;;;;;;5058542;28;20035;-76
2022/08/02 08:42:30;;;;;;;5.50;3.28;;;;;;;;;;5062948;28;20043;-75
2022/08/02 08:44:57;;;;;;;5.35;3.30;;;;;;;;;;5064291;28;20024;-74
2022/08/02 08:47:27;;;;;;;6.43;3.00;;;;;;;;;;5066948;28;20033;-75
2022/08/02 08:49:58;;;;;;;5.53;2.72;;;;;;;;;;5059665;28;20028;-73
2022/08/02 08:52:25;;;;;;;6.63;2.72;;;;;;;;;;5058173;28;21209;-73
2022/08/02 08:54:51;;;;;;;4.35;2.30;;;;;;;;;;5064108;28;20550;-75
2022/08/02 08:57:19;;;;;;;5.22;2.10;;;;;;;;;;5059149;28;20380;-74
2022/08/02 08:59:44;;;;;;;6.10;2.28;;;;;;;;;;5064794;28;20021;-75
2022/08/02 09:02:10;;;;;;;4.65;1.90;;;;;;;;;;5061827;28;20400;-74
2022/08/02 09:04:35;;;;;;;2.80;1.67;;;;;;;;;;5064887;28;20016;-75
2022/08/02 09:07:01;;;;;;;2.35;1.48;;;;;;;;;;5061633;28;20529;-74
2022/08/02 09:09:26;;;;;;;2.80;1.65;;;;;;;;;;5064624;28;20039;-74
2022/08/02 09:11:52;;;;;;;2.85;1.70;;;;;;;;;;5070961;28;20017;-74
2022/08/02 09:14:26;;;;;;;5.82;1.77;;;;;;;;;;5064401;28;20024;-75
2022/08/02 09:16:52;;;;;;;3.88;1.65;;;;;;;;;;5065655;28;20036;-74
2022/08/02 09:19:17;;;;;;;2.53;1.50;;;;;;;;;;5063432;28;20028;-74
2022/08/02 09:21:43;;;;;;;2.83;1.55;;;;;;;;;;5060585;28;20499;-74
2022/08/02 09:24:21;;;;;;;1.90;1.45;;;;;;;;;;5062189;28;20501;-74
2022/08/02 09:26:48;;;;;;;2.13;1.30;;;;;;;;;;5059210;28;21039;-74
2022/08/02 09:29:14;;;;;;;1.60;1.17;;;;;;;;;;5068055;28;20024;-74
2022/08/02 09:31:40;;;;;;;2.58;1.30;;;;;;;;;;5069455;28;20048;-74
2022/08/02 09:34:05;;;;;;;2.30;1.33;;;;;;;;;;5068677;28;20553;-74
2022/08/02 09:36:42;;;;;;;4.40;1.20;;;;;;;;;;5069895;28;20028;-74
2022/08/02 09:39:13;;;;;;;2.67;1.27;;;;;;;;;;5070043;28;20024;-74
2022/08/02 09:41:44;;;;;;;1.73;1.05;;;;;;;;;;5079697;28;20033;-74
2022/08/02 09:44:12;;;;;;;2.00;1.20;;;;;;;;;;5069479;28;20042;-74
2022/08/02 09:46:45;;;;;;;3.13;1.10;;;;;;;;;;5071101;28;20024;-74
2022/08/02 09:49:16;;;;;;;2.05;1.00;;;;;;;;;;5070157;28;20029;-74
2022/08/02 09:51:48;;;;;;;2.22;1.08;;;;;;;;;;5062253;28;20119;-74
2022/08/02 09:54:17;;;;;;;1.52;1.05;;;;;;;;;;5068028;28;20324;-75
2022/08/02 09:56:52;;;;;;;1.33;0.90;;;;;;;;;;5069760;28;20032;-75
2022/08/02 09:59:19;;;;;;;2.10;1.20;;;;;;;;;;5065440;28;20542;-74
2022/08/02 10:01:46;;;;;;;1.42;1.00;;;;;;;;;;5071600;28;20499;-74
2022/08/02 10:04:13;;;;;;;2.53;1.20;;;;;;;;;;5070884;28;20032;-75
2022/08/02 10:06:41;;;;;;;1.45;1.00;;;;;;;;;;5066232;28;20039;-75
2022/08/02 10:09:08;;;;;;;1.73;1.13;;;;;;;;;;5071933;28;20048;-74
2022/08/02 10:11:34;;;;;;;1.63;1.08;;;;;;;;;;5066098;28;20547;-74
2022/08/02 10:14:04;;;;;;;2.83;1.30;;;;;;;;;;5057886;28;20498;-75
2022/08/02 10:16:32;;;;;;;3.17;1.20;;;;;;;;;;5049780;28;20025;-75
2022/08/02 10:19:00;;;;;;;2.28;1.20;;;;;;;;;;5069220;28;20397;-75
2022/08/02 10:21:46;;;;;;;2.50;1.23;;;;;;;;;;5067178;28;20052;-74
2022/08/02 10:24:23;;;;;;;2.63;1.33;;;;;;;;;;5057461;28;20036;-75
2022/08/02 10:26:49;;;;;;;2.95;1.30;;;;;;;;;;5065392;28;20081;-74
2022/08/02 10:29:22;;;;;;;2.03;1.13;;;;;;;;;;5061347;28;20029;-74
2022/08/02 10:32:03;;;;;;;2.17;1.30;;;;;;;;;;5063336;28;22379;-74
2022/08/02 10:34:35;;;;;;;1.75;1.08;;;;;;;;;;5068025;28;20432;-75
2022/08/02 10:37:02;;;;;;;2.47;1.10;;;;;;;;;;5064477;28;20081;-75
2022/08/02 10:39:37;;;;;;;1.50;1.00;;;;;;;;;;5065497;28;20024;-75
2022/08/02 10:42:03;;;;;;;2.35;1.10;;;;;;;;;;5051921;28;20493;-74
2022/08/02 10:44:31;;;;;;;4.10;1.20;;;;;;;;;;5069758;28;20028;-75
2022/08/02 10:47:24;;;;;;;4.93;1.40;;;;;;;;;;5064256;28;20032;-74
2022/08/02 10:49:54;;;;;;;2.28;1.00;;;;;;;;;;5062604;28;20028;-74
2022/08/02 10:52:21;;;;;;;2.35;1.00;;;;;;;;;;5069957;28;20043;-74
2022/08/02 10:55:10;;;;;;;1.90;1.10;;;;;;;;;;5063111;28;20021;-75
2022/08/02 10:57:36;;;;;;;2.75;1.10;;;;;;;;;;5058708;28;20044;-74
2022/08/02 11:00:28;;;;;;;1.58;1.02;;;;;;;;;;5062070;28;20059;-74
2022/08/02 11:02:54;;;;;;;1.80;1.10;;;;;;;;;;5061499;28;20525;-75
2022/08/02 11:05:33;;;;;;;2.95;1.00;;;;;;;;;;5061488;28;20273;-75
2022/08/02 11:08:17;;;;;;;2.10;1.27;;;;;;;;;;5056971;28;20504;-75
2022/08/02 11:10:43;;;;;;;3.30;1.00;;;;;;;;;;5070340;28;20024;-74
2022/08/02 11:13:14;;;;;;;1.38;1.00;;;;;;;;;;5070112;28;20043;-74
2022/08/02 11:16:03;;;;;;;2.10;1.10;;;;;;;;;;5071037;28;20028;-75
2022/08/02 11:18:50;;;;;;;3.95;1.10;;;;;;;;;;5066296;28;20032;-74
2022/08/02 11:21:22;;;;;;;1.88;1.02;;;;;;;;;;5066500;28;20542;-73
2022/08/02 11:23:48;;;;;;;2.38;0.90;;;;;;;;;;5053464;28;20033;-74
2022/08/02 11:26:31;;;;;;;1.98;0.90;;;;;;;;;;5059043;28;20035;-75
2022/08/02 11:28:59;;;;;;;1.90;0.93;;;;;;;;;;5060457;28;20036;-74
2022/08/02 11:31:25;;;;;;;2.10;0.93;;;;;;;;;;5060859;28;20031;-74
2022/08/02 11:33:51;;;;;;;1.60;1.00;;;;;;;;;;5067437;28;20042;-73
2022/08/02 11:36:17;;;;;;;1.50;0.98;;;;;;;;;;5063362;28;20586;-74
2022/08/02 11:38:43;;;;;;;1.25;0.90;;;;;;;;;;5062193;28;20059;-76
2022/08/02 11:41:09;;;;;;;1.98;1.00;;;;;;;;;;5070202;28;20429;-74
2022/08/02 11:43:35;;;;;;;1.40;0.90;;;;;;;;;;5068248;28;20123;-75
2022/08/02 11:46:03;;;;;;;2.58;1.08;;;;;;;;;;5066805;28;20021;-75
2022/08/02 11:48:33;;;;;;;1.98;0.90;;;;;;;;;;5068421;28;20115;-74
2022/08/02 11:51:15;;;;;;;1.77;0.80;;;;;;;;;;5063567;28;20040;-74
2022/08/02 11:53:50;;;;;;;2.47;1.00;;;;;;;;;;5068128;28;20040;-74
2022/08/02 11:56:24;;;;;;;2.85;1.20;;;;;;;;;;5067324;28;20029;-75
2022/08/02 11:59:04;;;;;;;2.03;0.82;;;;;;;;;;5068248;28;20539;-75
2022/08/02 12:01:30;;;;;;;1.70;0.98;;;;;;;;;;5063353;28;20023;-75
2022/08/02 12:03:59;;;;;;;1.65;1.00;;;;;;;;;;5063935;28;20032;-75
2022/08/02 12:06:27;;;;;;;2.05;0.85;;;;;;;;;;5060069;28;20028;-74
2022/08/02 12:08:58;;;;;;;2.83;0.90;;;;;;;;;;5065994;28;20048;-73
2022/08/02 12:11:23;;;;;;;1.75;0.90;;;;;;;;;;5069478;28;20079;-74
2022/08/02 12:13:49;;;;;;;1.63;0.90;;;;;;;;;;5066395;28;20051;-75
2022/08/02 12:21:42;;;;;;;1.58;0.80;;;;;;;;;;5063787;28;20031;-74
2022/08/02 12:24:09;;;;;;;1.75;0.82;;;;;;;;;;5067068;28;20029;-74
2022/08/02 12:26:46;;;;;;;2.20;1.38;;;;;;;;;;5070637;28;20455;-75
2022/08/02 12:29:12;;;;;;;1.58;1.00;;;;;;;;;;5069082;28;20096;-75
2022/08/02 12:31:48;;;;;;;1.90;0.90;;;;;;;;;;5067098;28;20136;-75
2022/08/02 12:34:17;;;;;;;1.08;0.90;;;;;;;;;;5063401;28;20025;-76
2022/08/02 12:36:55;;;;;;;1.48;0.93;;;;;;;;;;5067464;28;20504;-75
2022/08/02 12:39:31;;;;;;;1.30;0.80;;;;;;;;;;5066828;28;20117;-74
2022/08/02 12:41:57;;;;;;;3.95;1.00;;;;;;;;;;5067392;28;20063;-73
2022/08/02 12:44:22;;;;;;;2.90;0.90;;;;;;;;;;5061160;28;20109;-74
2022/08/02 12:47:00;;;;;;;1.73;1.00;;;;;;;;;;5072942;28;20032;-74
2022/08/02 12:49:26;;;;;;;2.28;0.95;;;;;;;;;;5062805;28;20407;-74
2022/08/02 12:51:52;;;;;;;1.40;0.85;;;;;;;;;;5066592;28;20115;-74
2022/08/02 12:54:21;;;;;;;1.67;0.88;;;;;;;;;;5071404;28;20021;-73
2022/08/02 12:56:47;;;;;;;1.38;0.90;;;;;;;;;;5070142;28;20048;-74
2022/08/02 12:59:13;;;;;;;1.70;0.80;;;;;;;;;;5066946;28;20117;-74
2022/08/02 13:01:39;;;;;;;1.42;0.80;;;;;;;;;;5069141;28;20090;-73
2022/08/02 13:04:05;;;;;;;1.50;0.90;;;;;;;;;;5066728;28;20064;-74
2022/08/02 13:06:30;;;;;;;1.42;1.00;;;;;;;;;;5067078;28;20392;-74
2022/08/02 13:08:57;;;;;;;2.70;0.80;;;;;;;;;;5070141;28;20017;-75
2022/08/02 13:11:24;;;;;;;2.28;0.93;;;;;;;;;;5067306;28;20064;-73
2022/08/02 13:13:49;;;;;;;1.50;0.80;;;;;;;;;;5050319;28;20033;-73
2022/08/02 13:16:15;;;;;;;1.60;1.00;;;;;;;;;;5059709;28;20032;-74
2022/08/02 13:18:41;;;;;;;1.30;1.00;;;;;;;;;;5057616;28;20048;-74
2022/08/02 13:21:07;;;;;;;1.92;1.00;;;;;;;;;;5056460;28;20779;-73
2022/08/02 13:23:34;;;;;;;2.90;0.95;;;;;;;;;;5060414;28;20035;-74
2022/08/02 13:26:00;;;;;;;1.85;0.82;;;;;;;;;;5060531;28;20190;-74
2022/08/02 13:28:25;;;;;;;2.35;1.02;;;;;;;;;;5057706;28;20036;-74
2022/08/02 13:30:52;;;;;;;2.33;1.00;;;;;;;;;;5062773;28;20024;-73
2022/08/02 13:33:18;;;;;;;3.55;1.20;;;;;;;;;;5056285;28;20052;-74
2022/08/02 13:35:45;;;;;;;1.30;0.90;;;;;;;;;;5057471;28;20036;-73
2022/08/02 13:38:10;;;;;;;1.23;0.95;;;;;;;;;;5060794;28;20488;-74
2022/08/02 13:41:07;;;;;;;1.42;0.82;;;;;;;;;;5062306;28;20035;-73
2022/08/02 13:43:21;;;;;;;1.75;0.80;;;;;;;;;;5061232;28;20527;-74
2022/08/02 13:45:46;;;;;;;2.10;0.90;;;;;;;;;;5057857;28;20024;-74
2022/08/02 13:48:12;;;;;;;2.00;1.33;;;;;;;;;;5060900;28;20047;-73
2022/08/02 13:50:37;;;;;;;1.27;0.80;;;;;;;;;;5059888;28;20633;-73
2022/08/02 13:53:03;;;;;;;1.30;0.77;;;;;;;;;;5060292;28;20025;-74
2022/08/02 13:55:29;;;;;;;2.22;0.90;;;;;;;;;;5056540;28;20025;-74
2022/08/02 13:57:54;;;;;;;2.22;0.82;;;;;;;;;;5057898;28;20113;-74
2022/08/02 14:00:20;;;;;;;1.40;0.90;;;;;;;;;;5057608;28;20055;-73
2022/08/02 14:02:45;;;;;;;1.20;0.95;;;;;;;;;;5059308;28;20388;-74
2022/08/02 14:05:11;;;;;;;2.25;0.88;;;;;;;;;;5051308;28;20024;-73
2022/08/02 14:07:36;;;;;;;1.70;0.80;;;;;;;;;;5054417;28;20029;-74
2022/08/02 14:10:02;;;;;;;1.67;0.82;;;;;;;;;;5055837;28;20040;-74
2022/08/02 14:12:27;;;;;;;4.15;0.90;;;;;;;;;;5054410;28;20021;-73
2022/08/02 14:14:53;;;;;;;1.88;1.00;;;;;;;;;;5054286;28;20067;-74
2022/08/02 14:17:18;;;;;;;3.22;0.90;;;;;;;;;;5062953;28;20120;-74
2022/08/02 14:19:44;;;;;;;3.20;1.00;;;;;;;;;;5056550;28;20025;-73
2022/08/02 14:22:09;;;;;;;2.05;0.90;;;;;;;;;;5056427;28;20450;-73
2022/08/02 14:24:35;;;;;;;1.50;0.88;;;;;;;;;;5050110;28;20029;-73
2022/08/02 14:27:00;;;;;;;1.52;1.00;;;;;;;;;;5067194;28;20108;-74
2022/08/02 14:29:26;;;;;;;1.75;1.00;;;;;;;;;;5057620;28;20107;-74
2022/08/02 14:31:51;;;;;;;1.17;0.90;;;;;;;;;;5072957;28;20787;-73
2022/08/02 14:34:17;;;;;;;2.00;1.00;;;;;;;;;;5060127;28;20032;-74
2022/08/02 14:36:42;;;;;;;2.95;0.93;;;;;;;;;;5065015;28;20644;-73
2022/08/02 14:39:08;;;;;;;2.28;0.80;;;;;;;;;;5063476;28;20035;-74
2022/08/02 14:41:35;;;;;;;2.10;1.00;;;;;;;;;;5069764;28;20020;-73
2022/08/02 14:44:04;;;;;;;2.42;0.80;;;;;;;;;;5065674;28;20021;-73
2022/08/02 14:46:36;;;;;;;2.28;1.02;;;;;;;;;;5068347;28;20381;-74
2022/08/02 14:49:03;;;;;;;2.38;1.00;;;;;;;;;;5059934;28;20043;-74
2022/08/02 14:51:30;;;;;;;4.70;1.00;;;;;;;;;;5062565;28;20504;-73
2022/08/02 14:53:56;;;;;;;2.78;1.08;;;;;;;;;;5067065;28;20267;-73
2022/08/02 14:56:21;;;;;;;1.23;0.90;;;;;;;;;;5064873;28;20020;-74
2022/08/02 14:58:46;;;;;;;1.48;0.90;;;;;;;;;;5059238;28;20036;-74